createdAt,value
2023-05-05T00:00:31.328Z,6.84
2023-05-05T00:02:59.964Z,7.24
2023-05-05T00:05:28.359Z,7.31
2023-05-05T00:07:56.620Z,7.55
2023-05-05T00:10:26.710Z,7.96
2023-05-05T00:12:54.971Z,7.83
2023-05-05T00:15:23.088Z,7.82
2023-05-05T00:17:51.255Z,8.36
2023-05-05T00:20:21.153Z,7.97
2023-05-05T00:22:49.269Z,8.84
2023-05-05T00:25:17.816Z,8.71
2023-05-05T00:27:47.346Z,8.19
2023-05-05T00:30:16.638Z,8.32
2023-05-05T00:32:45.205Z,8.10
2023-05-05T00:35:13.882Z,7.48
2023-05-05T00:37:42.486Z,7.70
2023-05-05T00:40:12.519Z,8.19
2023-05-05T00:42:42.514Z,7.99
2023-05-05T00:45:13.876Z,7.98
2023-05-05T00:47:45.748Z,7.46
2023-05-05T00:50:23.975Z,7.61
2023-05-05T00:52:57.214Z,7.89
2023-05-05T00:55:26.139Z,7.76
2023-05-05T00:57:54.940Z,7.12
2023-05-05T01:00:26.328Z,7.32
2023-05-05T01:02:55.337Z,7.42
2023-05-05T01:05:27.330Z,7.27
2023-05-05T01:08:16.450Z,7.63
2023-05-05T01:10:53.744Z,7.35
2023-05-05T01:13:31.929Z,7.29
2023-05-05T01:16:11.710Z,7.64
2023-05-05T01:18:50.860Z,7.79
2023-05-05T01:21:27.166Z,7.25
2023-05-05T01:24:19.865Z,7.42
2023-05-05T01:27:15.285Z,7.69
2023-05-05T01:30:06.686Z,7.60
2023-05-05T01:32:43.206Z,7.36
2023-05-05T01:35:17.449Z,7.45
2023-05-05T01:37:52.115Z,7.70
2023-05-05T01:40:27.462Z,7.70
2023-05-05T01:42:58.373Z,7.47
2023-05-05T01:45:33.405Z,7.57
2023-05-05T01:48:06.111Z,7.84
2023-05-05T01:50:37.562Z,7.78
2023-05-05T01:53:09.492Z,7.23
2023-05-05T01:55:41.203Z,7.11
2023-05-05T01:58:12.513Z,7.07
2023-05-05T02:00:42.848Z,7.50
2023-05-05T02:03:16.041Z,7.92
2023-05-05T02:05:50.110Z,7.49
2023-05-05T02:08:20.131Z,7.58
2023-05-05T02:10:50.728Z,7.10
2023-05-05T02:13:20.331Z,7.06
2023-05-05T02:15:51.338Z,7.48
2023-05-05T02:18:22.994Z,7.29
2023-05-05T02:20:53.163Z,7.31
2023-05-05T02:23:21.826Z,7.25
2023-05-05T02:25:54.378Z,7.19
2023-05-05T02:28:34.876Z,7.11
2023-05-05T02:31:08.205Z,7.09
2023-05-05T02:33:41.551Z,7.22
2023-05-05T02:36:17.709Z,7.41
2023-05-05T02:38:57.589Z,7.58
2023-05-05T02:41:30.795Z,7.48
2023-05-05T02:44:06.382Z,7.66
2023-05-05T02:46:38.466Z,7.62
2023-05-05T02:49:09.152Z,7.87
2023-05-05T02:51:39.155Z,8.41
2023-05-05T02:54:13.249Z,8.13
2023-05-05T02:56:48.486Z,7.70
2023-05-05T02:59:23.566Z,7.96
2023-05-05T03:02:07.838Z,7.78
2023-05-05T03:04:44.001Z,7.59
2023-05-05T03:11:42.336Z,7.58
2023-05-05T03:14:14.189Z,7.04
2023-05-05T03:16:45.510Z,7.03
2023-05-05T03:19:19.608Z,6.99
2023-05-05T03:21:53.566Z,7.03
2023-05-05T03:24:22.773Z,7.24
2023-05-05T03:26:59.331Z,7.14
2023-05-05T03:29:34.002Z,6.74
2023-05-05T03:32:04.675Z,7.24
2023-05-05T03:34:36.020Z,7.64
2023-05-05T03:37:06.064Z,7.69
2023-05-05T03:39:34.953Z,7.53
2023-05-05T03:42:03.949Z,7.94
2023-05-05T03:44:34.649Z,7.52
2023-05-05T03:47:03.436Z,7.39
2023-05-05T03:49:34.074Z,7.70
2023-05-05T03:52:02.258Z,7.44
2023-05-05T03:54:32.411Z,7.61
2023-05-05T03:57:01.080Z,7.70
2023-05-05T03:59:29.160Z,6.89
2023-05-05T04:01:58.014Z,7.70
2023-05-05T04:04:26.701Z,7.67
2023-05-05T04:06:55.009Z,7.68
2023-05-05T04:09:23.466Z,8.53
2023-05-05T04:11:52.901Z,7.95
2023-05-05T04:14:21.421Z,7.72
2023-05-05T04:16:49.760Z,8.02
2023-05-05T04:19:18.551Z,8.22
2023-05-05T04:21:46.965Z,8.36
2023-05-05T04:24:15.144Z,8.44
2023-05-05T04:26:43.198Z,8.27
2023-05-05T04:29:13.121Z,8.08
2023-05-05T04:31:41.874Z,8.21
2023-05-05T04:34:10.176Z,7.82
2023-05-05T04:36:39.063Z,8.14
2023-05-05T04:39:08.293Z,8.14
2023-05-05T04:41:38.279Z,8.16
2023-05-05T04:44:07.240Z,8.62
2023-05-05T04:46:37.052Z,8.18
2023-05-05T04:49:05.943Z,8.31
2023-05-05T04:51:35.582Z,8.43
2023-05-05T04:54:04.284Z,8.26
2023-05-05T04:56:32.469Z,8.50
2023-05-05T04:59:00.594Z,8.15
2023-05-05T05:01:29.002Z,8.09
2023-05-05T05:03:58.710Z,8.35
2023-05-05T05:06:27.236Z,8.03
2023-05-05T05:08:56.968Z,7.73
2023-05-05T05:11:25.105Z,7.96
2023-05-05T05:13:53.109Z,7.79
2023-05-05T05:16:21.532Z,7.60
2023-05-05T05:18:50.840Z,7.84
2023-05-05T05:21:21.076Z,7.99
2023-05-05T05:23:50.554Z,7.52
2023-05-05T05:26:19.059Z,7.40
2023-05-05T05:28:47.199Z,7.68
2023-05-05T05:31:15.224Z,6.89
2023-05-05T05:33:43.881Z,7.03
2023-05-05T05:36:13.794Z,6.78
2023-05-05T05:38:43.200Z,6.88
2023-05-05T05:41:11.953Z,6.26
2023-05-05T05:43:41.652Z,6.58
2023-05-05T05:46:10.538Z,5.92
2023-05-05T05:48:40.828Z,6.61
2023-05-05T05:51:09.502Z,6.34
2023-05-05T05:53:37.820Z,6.10
2023-05-05T05:56:08.576Z,6.11
2023-05-05T05:58:37.273Z,6.09
2023-05-05T06:01:05.648Z,6.24
2023-05-05T06:03:34.787Z,6.14
2023-05-05T06:06:03.016Z,10.79
2023-05-05T06:08:31.498Z,13.49
2023-05-05T06:11:00.727Z,9.05
2023-05-05T06:13:30.590Z,6.75
2023-05-05T06:15:59.200Z,6.20
2023-05-05T06:18:27.793Z,5.97
2023-05-05T06:20:56.153Z,5.48
2023-05-05T06:23:28.185Z,5.84
2023-05-05T06:26:01.237Z,5.36
2023-05-05T06:28:30.874Z,4.96
2023-05-05T06:30:59.045Z,4.94
2023-05-05T06:33:27.389Z,5.26
2023-05-05T06:35:55.740Z,5.77
2023-05-05T06:38:24.103Z,10.27
2023-05-05T06:40:52.124Z,8.78
2023-05-05T06:43:21.001Z,6.03
2023-05-05T06:45:56.588Z,5.11
2023-05-05T06:48:24.647Z,4.82
2023-05-05T06:50:52.622Z,4.44
2023-05-05T06:53:21.221Z,5.12
2023-05-05T06:55:49.804Z,4.36
2023-05-05T06:58:18.002Z,4.20
2023-05-05T07:00:46.268Z,4.37
2023-05-05T07:03:16.063Z,3.74
2023-05-05T07:05:44.402Z,3.88
2023-05-05T07:08:12.739Z,4.11
2023-05-05T07:10:41.777Z,3.66
2023-05-05T07:13:09.896Z,3.50
2023-05-05T07:15:38.088Z,3.41
2023-05-05T07:18:06.766Z,3.27
2023-05-05T07:20:36.483Z,3.89
2023-05-05T07:23:04.578Z,4.23
2023-05-05T07:25:33.342Z,3.85
2023-05-05T07:28:02.123Z,3.61
2023-05-05T07:30:30.471Z,3.55
2023-05-05T07:32:58.648Z,2.66
2023-05-05T07:35:27.833Z,2.53
2023-05-05T07:37:57.467Z,3.25
2023-05-05T07:42:54.009Z,3.21
2023-05-05T07:45:22.292Z,3.65
2023-05-05T07:47:50.694Z,3.15
2023-05-05T07:50:19.475Z,3.55
2023-05-05T07:52:53.951Z,3.32
2023-05-05T07:55:31.576Z,3.52
2023-05-05T07:57:59.740Z,3.48
2023-05-05T08:00:28.087Z,3.95
2023-05-05T08:02:56.806Z,3.33
2023-05-05T08:05:25.157Z,3.81
2023-05-05T08:07:53.357Z,4.10
2023-05-05T08:10:23.160Z,3.71
2023-05-05T08:12:54.546Z,3.40
2023-05-05T08:15:25.234Z,3.60
2023-05-05T08:17:56.004Z,3.06
2023-05-05T08:20:28.577Z,3.43
2023-05-05T08:22:56.648Z,3.41
2023-05-05T08:25:27.208Z,3.89
2023-05-05T08:27:56.882Z,6.41
2023-05-05T08:30:29.480Z,3.35
2023-05-05T08:32:58.998Z,2.91
2023-05-05T08:35:27.320Z,3.88
2023-05-05T08:37:57.345Z,3.48
2023-05-05T08:40:33.034Z,2.94
2023-05-05T08:43:02.928Z,2.95
2023-05-05T08:45:31.343Z,4.01
2023-05-05T08:48:02.699Z,3.65
2023-05-05T08:50:32.317Z,3.12
2023-05-05T08:53:10.878Z,3.13
2023-05-05T08:55:46.874Z,3.67
2023-05-05T08:58:18.856Z,3.55
2023-05-05T09:00:47.461Z,4.14
2023-05-05T09:03:16.841Z,3.96
2023-05-05T09:05:46.211Z,3.43
2023-05-05T09:08:16.571Z,3.09
2023-05-05T09:10:44.936Z,3.20
2023-05-05T09:13:13.299Z,3.31
2023-05-05T09:15:42.839Z,3.30
2023-05-05T09:18:12.147Z,3.57
2023-05-05T09:20:42.037Z,4.47
2023-05-05T09:23:12.106Z,3.52
2023-05-05T09:25:40.617Z,3.31
2023-05-05T09:28:13.420Z,2.88
2023-05-05T09:30:44.545Z,3.02
2023-05-05T09:33:13.365Z,3.21
2023-05-05T09:35:53.005Z,3.18
2023-05-05T09:38:22.885Z,3.47
2023-05-05T09:40:53.037Z,3.64
2023-05-05T09:43:23.461Z,2.74
2023-05-05T09:45:52.987Z,2.68
2023-05-05T09:48:28.209Z,3.38
2023-05-05T09:50:57.770Z,3.38
2023-05-05T09:53:26.910Z,3.57
2023-05-05T09:55:56.377Z,3.72
2023-05-05T09:58:26.414Z,3.27
2023-05-05T10:00:57.091Z,4.70
2023-05-05T10:03:25.971Z,3.25
2023-05-05T10:05:56.716Z,3.72
2023-05-05T10:08:26.906Z,3.38
2023-05-05T10:10:59.515Z,3.68
2023-05-05T10:13:28.813Z,3.97
2023-05-05T10:15:59.133Z,3.50
2023-05-05T10:18:29.057Z,3.58
2023-05-05T10:20:59.753Z,3.65
2023-05-05T10:23:37.093Z,3.75
2023-05-05T10:26:09.280Z,3.57
2023-05-05T10:28:47.154Z,3.20
2023-05-05T10:31:26.427Z,3.36
2023-05-05T10:34:01.712Z,3.43
2023-05-05T10:36:32.069Z,3.61
2023-05-05T10:39:01.581Z,3.81
2023-05-05T10:41:32.389Z,3.63
2023-05-05T10:44:04.333Z,3.73
2023-05-05T10:46:34.587Z,3.33
2023-05-05T10:49:15.789Z,3.64
2023-05-05T10:51:54.015Z,3.43
2023-05-05T10:54:31.305Z,3.31
2023-05-05T10:57:02.570Z,3.43
2023-05-05T10:59:44.914Z,3.45
2023-05-05T11:02:28.100Z,3.44
2023-05-05T11:05:15.403Z,3.29
2023-05-05T11:07:45.130Z,3.63
2023-05-05T11:10:16.166Z,3.90
2023-05-05T11:13:20.146Z,4.24
2023-05-05T11:15:50.235Z,3.23
2023-05-05T11:18:36.093Z,3.42
2023-05-05T11:21:19.045Z,3.41
2023-05-05T11:23:49.692Z,3.81
2023-05-05T11:26:20.580Z,3.52
2023-05-05T11:29:03.124Z,3.07
2023-05-05T11:31:32.319Z,3.35
2023-05-05T11:34:29.193Z,3.08
2023-05-05T11:37:01.533Z,3.25
2023-05-05T11:39:41.695Z,3.36
2023-05-05T11:42:23.475Z,3.01
2023-05-05T11:44:52.890Z,3.25
2023-05-05T11:47:33.757Z,3.27
2023-05-05T11:50:22.975Z,3.76
2023-05-05T11:52:51.347Z,3.33
2023-05-05T11:55:24.391Z,3.34
2023-05-05T11:57:53.369Z,3.01
2023-05-05T12:00:32.232Z,3.19
2023-05-05T12:03:00.990Z,2.98
2023-05-05T12:05:34.849Z,3.13
2023-05-05T12:08:04.937Z,3.18
2023-05-05T12:10:33.266Z,3.08
2023-05-05T12:13:01.769Z,3.20
2023-05-05T12:15:31.393Z,3.48
2023-05-05T12:18:02.669Z,3.41
2023-05-05T12:20:35.214Z,3.48
2023-05-05T12:23:06.267Z,3.31
2023-05-05T12:25:39.302Z,3.48
2023-05-05T12:28:09.546Z,3.23
2023-05-05T12:30:38.219Z,3.13
2023-05-05T12:33:07.747Z,3.23
2023-05-05T12:35:38.097Z,3.07
2023-05-05T12:38:06.420Z,3.34
2023-05-05T12:40:46.000Z,3.09
2023-05-05T12:43:29.578Z,3.45
2023-05-05T12:46:07.193Z,3.82
2023-05-05T12:48:38.075Z,4.66
2023-05-05T12:51:23.475Z,3.37
2023-05-05T12:54:03.895Z,3.96
2023-05-05T12:56:37.499Z,3.50
2023-05-05T12:59:08.242Z,3.82
2023-05-05T13:01:49.269Z,4.03
2023-05-05T13:04:18.833Z,3.87
2023-05-05T13:06:50.446Z,4.15
2023-05-05T13:09:26.121Z,4.18
2023-05-05T13:11:55.311Z,3.90
2023-05-05T13:14:24.528Z,3.62
2023-05-05T13:16:52.938Z,3.95
2023-05-05T13:19:22.686Z,3.85
2023-05-05T13:21:52.580Z,3.55
2023-05-05T13:24:28.709Z,3.59
2023-05-05T13:27:03.927Z,3.81
2023-05-05T13:29:32.522Z,3.63
2023-05-05T13:32:00.620Z,3.81
2023-05-05T13:34:28.749Z,3.61
2023-05-05T13:36:58.601Z,3.59
2023-05-05T13:39:26.546Z,3.77
2023-05-05T13:41:55.207Z,3.72
2023-05-05T13:44:23.592Z,3.74
2023-05-05T13:46:52.010Z,3.84
2023-05-05T13:49:20.533Z,4.00
2023-05-05T13:51:48.701Z,3.89
2023-05-05T13:54:18.297Z,3.84
2023-05-05T13:56:47.099Z,4.00
2023-05-05T13:59:15.406Z,4.19
2023-05-05T14:01:43.677Z,4.05
2023-05-05T14:04:11.818Z,3.89
2023-05-05T14:06:41.062Z,4.03
2023-05-05T14:09:09.337Z,3.75
2023-05-05T14:11:38.699Z,3.93
2023-05-05T14:14:07.190Z,3.93
2023-05-05T14:16:35.635Z,3.65
2023-05-05T14:19:04.334Z,4.69
2023-05-05T14:21:33.071Z,4.87
2023-05-05T14:24:01.323Z,4.20
2023-05-05T14:26:29.435Z,3.85
2023-05-05T14:28:58.740Z,3.78
2023-05-05T14:31:26.913Z,3.81
2023-05-05T14:33:54.967Z,3.71
2023-05-05T14:36:23.767Z,4.25
2023-05-05T14:38:51.990Z,4.07
2023-05-05T14:41:20.360Z,3.83
2023-05-05T14:43:48.632Z,4.02
2023-05-05T14:46:19.112Z,4.12
2023-05-05T14:48:48.832Z,3.68
2023-05-05T14:51:18.229Z,3.81
2023-05-05T14:53:46.823Z,4.09
2023-05-05T14:56:15.620Z,3.99
2023-05-05T14:58:44.365Z,4.17
2023-05-05T15:01:12.552Z,4.01
2023-05-05T15:03:42.196Z,4.27
2023-05-05T15:06:11.184Z,4.09
2023-05-05T15:08:40.158Z,4.22
2023-05-05T15:11:08.125Z,4.17
2023-05-05T15:13:38.866Z,4.15
2023-05-05T15:16:07.860Z,4.09
2023-05-05T15:18:35.999Z,4.27
2023-05-05T15:21:05.764Z,3.97
2023-05-05T15:23:34.112Z,4.33
2023-05-05T15:26:02.495Z,4.03
2023-05-05T15:28:30.632Z,4.74
2023-05-05T15:31:01.854Z,4.47
2023-05-05T15:33:30.945Z,4.14
2023-05-05T15:35:59.226Z,3.74
2023-05-05T15:38:29.714Z,4.12
2023-05-05T15:40:57.847Z,4.04
2023-05-05T15:43:27.110Z,3.96
2023-05-05T15:45:55.705Z,4.35
2023-05-05T15:48:23.950Z,4.10
2023-05-05T15:50:52.170Z,4.11
2023-05-05T15:53:20.074Z,4.34
2023-05-05T15:55:49.468Z,3.96
2023-05-05T15:58:17.476Z,3.87
2023-05-05T16:00:45.498Z,4.08
2023-05-05T16:03:14.023Z,4.10
2023-05-05T16:05:42.969Z,4.24
2023-05-05T16:08:11.356Z,4.44
2023-05-05T16:10:40.058Z,4.39
2023-05-05T16:13:09.436Z,3.38
2023-05-05T16:15:39.147Z,3.63
2023-05-05T16:18:07.286Z,3.84
2023-05-05T16:20:35.216Z,3.79
2023-05-05T16:23:03.100Z,3.94
2023-05-05T16:25:31.097Z,4.15
2023-05-05T16:28:00.479Z,4.06
2023-05-05T16:30:29.898Z,4.09
2023-05-05T16:32:58.024Z,4.53
2023-05-05T16:35:26.214Z,5.01
2023-05-05T16:37:54.431Z,4.52
2023-05-05T16:40:22.713Z,4.72
2023-05-05T16:42:50.921Z,4.56
2023-05-05T16:45:19.337Z,4.83
2023-05-05T16:47:48.935Z,4.63
2023-05-05T16:50:17.767Z,4.83
2023-05-05T16:52:46.344Z,5.20
2023-05-05T16:55:15.628Z,4.95
2023-05-05T16:57:43.998Z,5.21
2023-05-05T17:00:13.640Z,5.82
2023-05-05T17:02:41.846Z,6.39
2023-05-05T17:05:11.747Z,6.97
2023-05-05T17:07:41.326Z,6.54
2023-05-05T17:10:10.873Z,5.95
2023-05-05T17:12:39.463Z,6.73
2023-05-05T17:15:09.179Z,6.93
2023-05-05T17:17:37.347Z,6.59
2023-05-05T17:20:06.563Z,6.61
2023-05-05T17:22:36.558Z,6.66
2023-05-05T17:25:05.131Z,6.90
2023-05-05T17:27:33.158Z,7.45
2023-05-05T17:30:01.385Z,7.50
2023-05-05T17:32:29.757Z,7.83
2023-05-05T17:34:57.973Z,8.16
2023-05-05T17:37:26.781Z,7.84
2023-05-05T17:39:56.699Z,8.27
2023-05-05T17:42:27.157Z,8.42
2023-05-05T17:44:55.284Z,7.66
2023-05-05T17:47:24.426Z,7.49
2023-05-05T17:49:54.728Z,8.03
2023-05-05T17:52:25.330Z,7.17
2023-05-05T17:54:55.940Z,7.71
2023-05-05T17:57:25.237Z,7.84
2023-05-05T17:59:54.564Z,7.96
2023-05-05T18:02:24.277Z,8.29
2023-05-05T18:04:52.617Z,8.50
2023-05-05T18:07:20.764Z,8.55
2023-05-05T18:09:48.872Z,8.63
2023-05-05T18:12:17.535Z,7.70
2023-05-05T18:14:47.131Z,8.41
2023-05-05T18:17:16.106Z,8.50
2023-05-05T18:19:47.302Z,8.77
2023-05-05T18:22:17.713Z,8.16
2023-05-05T18:24:47.000Z,7.36
2023-05-05T18:27:15.326Z,7.33
2023-05-05T18:29:43.454Z,7.94
2023-05-05T18:32:12.831Z,7.86
2023-05-05T18:34:40.780Z,8.47
2023-05-05T18:37:08.971Z,8.10
2023-05-05T18:39:38.085Z,8.09
2023-05-05T18:42:07.965Z,8.44
2023-05-05T18:44:36.268Z,6.20
2023-05-05T18:47:04.352Z,6.02
2023-05-05T18:49:34.073Z,4.26
2023-05-05T18:52:04.404Z,2.42
2023-05-05T18:54:34.644Z,2.76
2023-05-05T18:57:03.666Z,2.68
2023-05-05T18:59:31.956Z,2.46
2023-05-05T19:02:01.336Z,2.15
2023-05-05T19:04:34.279Z,2.28
2023-05-05T19:07:07.870Z,2.21
2023-05-05T19:09:38.618Z,2.01
2023-05-05T19:12:09.005Z,2.12
2023-05-05T19:14:39.079Z,2.01
2023-05-05T19:17:07.786Z,2.01
2023-05-05T19:19:40.154Z,2.04
2023-05-05T19:22:10.770Z,2.01
2023-05-05T19:24:40.496Z,1.91
2023-05-05T19:27:15.502Z,1.72
2023-05-05T19:29:49.226Z,2.29
2023-05-05T19:32:19.293Z,2.67
2023-05-05T19:34:50.260Z,1.89
2023-05-05T19:37:20.079Z,1.49
2023-05-05T19:39:49.093Z,1.32
2023-05-05T19:42:18.286Z,1.53
2023-05-05T19:44:47.062Z,1.39
2023-05-05T19:47:15.766Z,1.48
2023-05-05T19:49:43.869Z,1.90
2023-05-05T19:52:11.916Z,1.69
2023-05-05T19:54:41.312Z,1.66
2023-05-05T19:57:09.522Z,1.65
2023-05-05T19:59:39.145Z,1.53
2023-05-05T20:02:09.454Z,1.79
2023-05-05T20:04:37.988Z,1.98
2023-05-05T20:07:06.251Z,1.77
2023-05-05T20:09:35.040Z,2.11
2023-05-05T20:12:04.882Z,2.05
2023-05-05T20:14:33.287Z,2.26
2023-05-05T20:17:01.340Z,2.60
2023-05-05T20:19:29.651Z,2.38
2023-05-05T20:21:59.296Z,2.28
2023-05-05T20:24:29.211Z,2.00
2023-05-05T20:26:57.857Z,2.16
2023-05-05T20:29:27.431Z,3.52
2023-05-05T20:31:56.711Z,2.49
2023-05-05T20:34:27.206Z,1.82
2023-05-05T20:36:55.520Z,1.99
2023-05-05T20:39:23.910Z,1.93
2023-05-05T20:41:52.167Z,2.05
2023-05-05T20:44:21.042Z,2.01
2023-05-05T20:46:50.541Z,1.78
2023-05-05T20:49:18.736Z,1.91
2023-05-05T20:51:46.692Z,1.89
2023-05-05T20:54:15.285Z,1.98
2023-05-05T20:56:43.577Z,1.73
2023-05-05T20:59:11.960Z,2.11
2023-05-05T21:01:40.362Z,2.79
2023-05-05T21:04:09.713Z,2.12
2023-05-05T21:06:38.458Z,1.92
2023-05-05T21:09:06.802Z,1.98
2023-05-05T21:11:34.774Z,1.88
2023-05-05T21:14:02.771Z,1.73
2023-05-05T21:16:31.141Z,1.81
2023-05-05T21:18:59.156Z,2.06
2023-05-05T21:21:28.514Z,2.30
2023-05-05T21:23:57.850Z,2.30
2023-05-05T21:26:26.093Z,2.05
2023-05-05T21:28:54.598Z,2.01
2023-05-05T21:31:22.826Z,2.06
2023-05-05T21:33:53.045Z,1.99
2023-05-05T21:36:21.318Z,1.94
2023-05-05T21:38:51.120Z,2.09
2023-05-05T21:41:20.126Z,2.23
2023-05-05T21:43:48.219Z,2.09
2023-05-05T21:46:17.899Z,2.23
2023-05-05T21:48:47.938Z,2.07
2023-05-05T21:51:16.054Z,1.89
2023-05-05T21:53:44.261Z,1.90
2023-05-05T21:56:13.774Z,2.09
2023-05-05T21:58:42.153Z,2.10
2023-05-05T22:01:10.906Z,2.00
2023-05-05T22:03:39.253Z,2.27
2023-05-05T22:06:28.173Z,2.27
2023-05-05T22:09:15.078Z,2.01
2023-05-05T22:11:44.715Z,2.10
2023-05-05T22:14:13.317Z,2.15
2023-05-05T22:16:41.627Z,2.38
2023-05-05T22:19:09.950Z,2.16
2023-05-05T22:21:38.017Z,2.16
2023-05-05T22:24:07.476Z,2.07
2023-05-05T22:26:35.580Z,2.26
2023-05-05T22:29:05.083Z,2.42
2023-05-05T22:31:33.184Z,2.32
2023-05-05T22:34:02.347Z,2.21
2023-05-05T22:36:31.262Z,2.13
2023-05-05T22:38:59.313Z,2.33
2023-05-05T22:41:30.851Z,2.30
2023-05-05T22:43:59.277Z,2.36
2023-05-05T22:46:28.948Z,2.37
2023-05-05T22:48:56.964Z,2.39
2023-05-05T22:51:25.187Z,2.27
2023-05-05T22:53:54.820Z,2.14
2023-05-05T22:56:22.804Z,2.22
2023-05-05T22:58:50.959Z,2.24
2023-05-05T23:01:19.170Z,2.50
2023-05-05T23:03:49.073Z,2.51
2023-05-05T23:06:17.550Z,2.43
2023-05-05T23:08:45.600Z,2.28
2023-05-05T23:11:13.554Z,2.35
2023-05-05T23:13:41.952Z,2.39
2023-05-05T23:16:10.017Z,3.43
2023-05-05T23:18:38.783Z,2.61
2023-05-05T23:21:09.962Z,2.56
2023-05-05T23:23:38.393Z,2.47
2023-05-05T23:26:06.494Z,2.39
2023-05-05T23:28:34.743Z,2.61
2023-05-05T23:31:02.933Z,2.54
2023-05-05T23:33:31.117Z,2.45
2023-05-05T23:35:59.105Z,2.58
2023-05-05T23:38:28.579Z,2.57
2023-05-05T23:40:56.720Z,2.80
2023-05-05T23:43:24.956Z,3.00
2023-05-05T23:45:53.328Z,2.83
2023-05-05T23:48:21.629Z,2.80
2023-05-05T23:50:50.440Z,3.08
2023-05-05T23:53:18.614Z,3.01
2023-05-05T23:55:48.359Z,2.97
2023-05-05T23:58:16.353Z,3.06
